Extreme weather reports worldwide

Rain

Station
 
Location
 
Name
 
Wind
Knots
Gust
Knots
Vis
SM
Temp/Dew
C
Baro
inHg
METAR
 
ONP KONP Newport, US Newport Municipal Airport 26 36 1.5 16/16 29.84 KONP 232215Z AUTO 20026G36KT 1 1/2SM RA OVC007 16/16 A2984 RMK AO2 P0003
YGR CYGR ÃŽles-de-la-Madeleine, CA ÃŽles-de-la-Madeleine Airport 25 34 6 11/11 29.26 CYGR 232207Z 30025G34KT 6SM -RA BR OVC010 11/11 A2926 RMK SC8 SLP909 DENSITY ALT 400FT
EBCV Chièvres, BE Chièvres Air Base 15 34 6.21 15/14 29.53 EBCV 232225Z AUTO 23015G34KT 9999 -RA BKN013/// BKN061/// 15/14 Q1000 GRN
NUW KNUW Oak Harbor, US Whidbey Island Naval Air Station (Ault Field) 25 33 10 17/13 29.69 KNUW 232156Z 15025G33KT 10SM -RA BKN020 BKN055 OVC100 18/14 A2969 RMK AO2 PK WND 15038/2102 SLP052 P0001 T01780139
YPW CYPW Powell River, CA Powell River Airport 21 33 20 15/14 29.53 CYPW 232236Z 11021G33KT 20SM -RA BKN009 BKN037 15/14 A2953 RMK SC5SC2 PCPN VRY LGT CIG VRB 6-12 SLP002 DENSITY ALT 1100FT

Station
 
Location
 
Name
 
Wind
Knots
Gust
Knots
Vis
SM
Temp/Dew
C
Baro
inHg
METAR
 
YAZ CYAZ Tofino, CA Tofino / Long Beach Airport 25 32 3 15/15 29.52 CYAZ 232219Z 15025G32KT 3SM +RA OVC009 15/15 A2952 RMK NS8 SLP997 DENSITY ALT 600FT
K4S1 15 32 4 18/15 29.98 K4S1 232235Z AUTO 18015G32KT 4SM RA SCT021 OVC028 18/15 A2998 RMK AO2
YTE CYTE Cape Dorset, CA Cape Dorset Airport 22 31 9 2/1 29.39 CYTE 232200Z AUTO 06022G31KT 9SM -RA OVC010 02/01 A2939 RMK SLP957
BAX UNBB Barnaul, RU Barnaul Airport 19 31 6.21 9/5 29.47 UNBB 232230Z 19010G16MPS 9999 -SHRA BKN025CB 09/05 Q0998 R24/290150 NOSIG RMK QFE726
YYF CYYF Penticton, CA Penticton Airport 21 30 15 16/11 29.77 CYYF 232200Z 18021G30KT 15SM -RA SCT072 BKN110 OVC150 16/11 A2977 RMK AC3AC3AC2 SLP082 DENSITY ALT 1700FT
YQX CYQX Gander, CA Gander International Airport 22 29 3 18/17 29.28 CYQX 232200Z 17022G29KT 3SM -SHRA BR FEW009 BKN018 OVC028 18/17 A2928 RMK SF1SC6SC1 CVCTV CLD EMBD SLP918 DENSITY ALT 1800FT
YOC CYOC Old Crow, CA Old Crow Airport 20 29 35 2/0 29.55 CYOC 232231Z 04020G29KT 35SM -RA FEW014 SCT041 BKN072 OVC084 02/M00 A2955 RMK ST1SC2AS3AC2 SLP023
OTH KOTH North Bend, US Southwest Oregon Regional Airport 19 29 10 23/16 29.89 KOTH 232156Z 20019G29KT 10SM -RA OVC037 23/16 A2989 RMK AO2 PK WND 19033/2104 RAB46 SLP120 P0000 T02330161
CDB PACD Cold Bay, US Cold Bay Airport 21 28 10 8/4 29.55 PACD 232213Z 33021G28KT 10SM -RA SCT021 BKN026 OVC043 09/04 A2955 RMK AO2 PK WND 33028/2208 RAB06 P0000 T00890044
YFB CYFB Iqaluit, CA Iqaluit Airport 21 26 3 2/0 29.52 CYFB 232200Z 12021G26KT 3SM -RASN OVC010 02/M00 A2952 RMK SN5SC3 SLP000
OVB UNNT Novosibirsk, RU Tolmachevo Airport 16 25 6.21 9/7 29.35 UNNT 232230Z 17008G13MPS 9999 -RA OVC019 09/07 Q0994 R16/290160 R07/290160 NOSIG RMK QFE736/0981
AST KAST Astoria, US Astoria Regional Airport 14 25 4 16/15 29.73 KAST 232155Z AUTO 19014G25KT 4SM RA BR FEW015 BKN060 OVC090 16/15 A2973 RMK AO2 PK WND 18032/2118 SLP067 P0005 T01610150 $
CWSA 19 24 4 13/13 29.49 CWSA 232232Z AUTO 25019G24KT 4SM -RA BR FEW014 OVC020 13/13 A2949 RMK SLP988 DENSITY ALT 200FT
LWR EHLW Leeuwarden, NL Leeuwarden Air Base 13 24 2.05 15/14 29.44 EHLW 232231Z AUTO 21013G24KT 170V240 3300 +SHRA FEW006 SCT009 BKN011 SCT015CB 15/14 Q0997 YLO
LFQB Troyes/Barberey, FR Troyes-Barberey Airport 12 24 6.21 17/16 29.68 LFQB 232230Z AUTO 26012G24KT 9999 -RA FEW021/// BKN030/// BKN038/// ///CB 17/16 Q1005
YNA CYNA Natashquan, CA Natashquan Airport 16 23 9 11/10 29.10 CYNA 232200Z AUTO 35016G23KT 9SM -RA OVC050 11/10 A2910 RMK SLP854 DENSITY ALT 500FT
KHDC Hammond, US Hammond Northshore Regional Airport 15 23 5 25/23 29.77 KHDC 232215Z AUTO 14015G23KT 5SM -RA OVC009 25/23 A2977 RMK AO2 P0004
YDF CYDF Deer Lake, CA Deer Lake Airport 16 22 12 16/13 29.09 CYDF 232200Z 18016G22KT 12SM -RA BKN028 OVC055 16/13 A2909 RMK SC6SC2 SLP851 DENSITY ALT 1200FT
OLM KOLM Olympia, US Olympia Regional Airport 15 22 5 16/14 29.76 KOLM 232154Z 19015G22KT 5SM -RA BR FEW012 BKN050 OVC100 16/14 A2976 RMK AO2 SLP078 P0008 T01610144
SEA KSEA Seattle, US Seattle Tacoma International Airport 11 22 7 17/15 29.75 KSEA 232153Z 16011G22KT 7SM -RA FEW030 OVC095 17/15 A2975 RMK AO2 SLP078 P0003 T01720150
KAWO Arlington, US Arlington Municipal Airport 17 21 10 16/15 29.72 KAWO 232156Z AUTO 15017G21KT 10SM -RA BKN030 BKN041 17/15 A2972 RMK AO2 SLP068 P0000 T01670150
K6S2 15 21 4 17/16 29.87 K6S2 232235Z AUTO 18015G21KT 4SM -RA BKN024 OVC030 18/16 A2987 RMK AO2 T01750163
GRF KGRF Fort Lewis/Tacoma, US Gray Army Air Field 14 21 6 17/17 29.76 KGRF 232218Z COR AUTO 14014G21KT 6SM -RA SCT018 OVC023 17/17 A2976 RMK AO2 SLP081 $ COR 2231
UIL KUIL Quillayute, US Quillayute Airport 11 21 3 15/14 29.63 KUIL 232153Z AUTO 19011G21KT 150V230 3SM -RA BR OVC005 16/14 A2963 RMK AO2 RAB50 SLP034 P0000 T01560144
KVC PAVC King Cove, US King Cove Airport 6 21 10 7/3 29.54 PAVC 232156Z AUTO VRB06G21KT 10SM -RA OVC024 08/03 A2954 RMK AO2 PK WND 33031/2107 SLP002 P0000 T00780033
GWO KGWO Greenwood, US Greenwood–Leflore Airport 14 20 4 19/19 29.91 KGWO 232153Z AUTO 07014G20KT 4SM RA BR FEW038 BKN049 OVC065 19/19 A2991 RMK AO2 SLP127 P0022 T01940194
EBLB Bütgenbach, BE Elsenborn Air Base 9 20 4.35 14/12 29.62 EBLB 232225Z AUTO 19009G20KT 7000 RA BKN042/// OVC065/// 14/12 Q1003 WHT
KS52 12 19 10 15/10 29.81 KS52 232215Z AUTO 15012G19KT 10SM -RA BKN028 OVC085 16/11 A2981 RMK AO2 T01570109
KHZR New Roads, US False River Regional Airport 11 19 5 25/24 29.71 KHZR 232215Z AUTO 18011G19KT 5SM -RA SCT008 SCT022 OVC039 25/24 A2971 RMK AO2 LTG DSNT N P0004
ESF KESF Alexandria, US Esler Regional Airport 11 19 1.25 21/20 29.71 KESF 232203Z AUTO 04011G19KT 1 1/4SM +RA BR BKN006 OVC012 21/21 A2971 RMK AO2 P0006 T02110206 $
KAQW North Adams, US Harriman and West Airport 9 19 10 22/12 29.82 KAQW 232152Z AUTO 27009G19KT 10SM -RA BKN050 OVC065 22/13 A2982 RMK AO2 SLP097 P0000 T02220128
KHSA Bay St Louis, US Stennis International Airport 12 18 2 25/25 29.82 KHSA 232150Z 14012G18KT 2SM RA BR BKN014 OVC032 25/25 A2982
RUI KSRR Ruidoso, US Sierra Blanca Regional Airport 7 18 10 20/4 30.24 KSRR 232215Z AUTO 36007G18KT 10SM -RA BKN110 20/04 A3024 RMK AO2
OKO RJTY Fussa, JP Yokota Air Base 13 17 3 18/16 30.02 RJTY 232159Z COR 36013G17KT 3SM -RA BR OVC029 18/16 A3002 RMK AO2A TWR VIS 2SM RAB59 SLP166 FZRANO $ COR 2207
MEM KMEM Memphis, US Memphis International Airport 11 17 10 16/15 29.99 KMEM 232154Z 06011G17KT 10SM -RA OVC008 17/15 A2999 RMK AO2 SLP153 P0003 T01670150
YVR CYVR Vancouver, CA Vancouver International Airport 11 17 10 16/15 29.63 CYVR 232200Z 15011G17KT 10SM -RA SCT008 BKN020 OVC068 16/15 A2963 RMK SF4SC3AC1 SLP035 DENSITY ALT 500FT
YLW CYLW Kelowna, CA Kelowna International Airport 11 17 9 17/10 29.73 CYLW 232200Z AUTO 16011G17KT 9SM -RA BKN065 BKN076 OVC090 17/10 A2973 RMK SLP070 DENSITY ALT 2200FT
KVUO Vancouver, US Pearson Field 10 17 6 18/13 29.80 KVUO 232153Z AUTO 18010G17KT 6SM -RA FEW048 BKN060 OVC080 18/14 A2980 RMK AO2 SLP093 P0001 T01830139
PWT KPWT Bremerton, US Bremerton National Airport 10 17 7 15/14 29.74 KPWT 232156Z AUTO 20010G17KT 7SM -RA BKN008 OVC012 16/14 A2974 RMK AO2 CIG 005V010 SLP074 P0001 T01560144
MCB KMCB Mc Comb, US Mc Comb/Pike County Airport/John E Lewis Field 9 17 4 25/22 29.78 KMCB 232153Z AUTO 13009G17KT 4SM RA BR BKN012 OVC016 25/23 A2978 RMK AO2 RAB51 SLP078 P0002 T02500228
MTM PAMM Metlakatla, US Metlakatla Seaplane Base 9 17 10 13/10 29.31 PAMM 232156Z AUTO 16009G17KT 10SM -RA FEW028 BKN043 OVC060 13/11 A2931 RMK AO2 RAB00 SLP916 T01330106 PNO $
WRG PAWG Wrangell, US Wrangell Airport 10 16 10 15/9 29.27 PAWG 232156Z 11010G16KT 10SM -RA BKN060 OVC080 15/09 A2927 RMK AO2 RAE06B44 SLPNO P0000 T01500094
CYDC Town of Princeton, CA Princeton Airport 9 16 15 18/8 29.71 CYDC 232200Z 21009G16KT 15SM -RA FEW045 FEW058 SCT066 OVC091 18/08 A2971 RMK SC1SC2AC2AS4 SC TR SLP056 DENSITY ALT 3500FT
RJTR Sagamihara / Zama, JP Camp Zama Kastner Army Heliport 10 15 2.25 18/16 29.94 RJTR 232233Z AUTO 32010G15KT 2 1/4SM -RA BR SCT011 SCT017 OVC024 18/16 A2994 RMK AO2 VIS 2 1/4V5 RAE11RAB24 SLP140
KSTF Starkville, US George M Bryan Airport 10 14 7 18/17 29.97 KSTF 232235Z AUTO 05010G14KT 7SM -RA OVC007 18/17 A2997 RMK AO2 P0003